Time;durP1;ratioP1;P1;durP2;ratioP2;P2;SDS_P1;SDS_P2;PMS_P1;PMS_P2;Temp;Humidity;BMP_temperature;BMP_pressure;BME280_temperature;BME280_humidity;BME280_pressure;Samples;Min_cycle;Max_cycle;Signal;HPM_P1;HPM_P2
2022/11/03 00:01:12;;;;;;;1.67;1.67;;;19.70;74.60;;;;;;5089085;28;43453;-70
2022/11/03 00:03:40;;;;;;;1.93;1.83;;;19.70;74.60;;;;;;5082687;28;43676;-70
2022/11/03 00:06:09;;;;;;;1.80;1.80;;;19.70;74.80;;;;;;5073173;28;43525;-70
2022/11/03 00:08:38;;;;;;;2.20;2.10;;;19.70;75.20;;;;;;5088815;28;43458;-70
2022/11/03 00:11:09;;;;;;;1.67;1.67;;;19.70;75.20;;;;;;5089036;28;43433;-70
2022/11/03 00:13:37;;;;;;;1.80;1.80;;;19.70;74.70;;;;;;5088425;28;43944;-71
2022/11/03 00:16:06;;;;;;;2.10;2.00;;;19.80;74.40;;;;;;5088304;28;43411;-70
2022/11/03 00:18:34;;;;;;;1.77;1.77;;;19.90;74.20;;;;;;5088391;28;43435;-69
2022/11/03 00:21:02;;;;;;;1.80;1.80;;;19.80;74.10;;;;;;5089933;27;43479;-73
2022/11/03 00:23:31;;;;;;;1.90;1.90;;;19.80;74.50;;;;;;5088474;28;43862;-71
2022/11/03 00:26:08;;;;;;;2.10;2.00;;;19.80;74.40;;;;;;5088462;28;43427;-69
2022/11/03 00:28:36;;;;;;;1.90;1.90;;;19.80;74.30;;;;;;5088400;28;43418;-70
2022/11/03 00:31:07;;;;;;;2.17;2.07;;;19.80;74.40;;;;;;5088567;28;43384;-71
2022/11/03 00:33:35;;;;;;;1.90;1.90;;;19.70;74.50;;;;;;5087832;27;45716;-71
2022/11/03 00:36:03;;;;;;;1.70;1.70;;;19.70;74.90;;;;;;5088207;28;43488;-69
2022/11/03 00:38:31;;;;;;;1.70;1.70;;;19.70;74.90;;;;;;5070138;28;44028;-72
2022/11/03 00:40:59;;;;;;;1.53;1.53;;;19.70;74.90;;;;;;5087887;28;43442;-72
2022/11/03 00:43:29;;;;;;;1.63;1.63;;;19.70;74.80;;;;;;5087927;27;45937;-71
2022/11/03 00:45:57;;;;;;;1.57;1.57;;;19.60;74.80;;;;;;5069819;28;44963;-72
2022/11/03 00:48:32;;;;;;;2.07;2.00;;;19.60;75.00;;;;;;5088611;28;43413;-70
2022/11/03 00:51:04;;;;;;;1.93;1.90;;;19.60;75.20;;;;;;5070500;28;43678;-71
2022/11/03 00:53:32;;;;;;;1.97;1.87;;;19.70;75.00;;;;;;5083621;28;44726;-70
2022/11/03 00:56:00;;;;;;;1.80;1.80;;;19.80;74.50;;;;;;5069394;28;44775;-72
2022/11/03 00:58:30;;;;;;;1.70;1.70;;;19.90;74.20;;;;;;5069824;28;43462;-71
2022/11/03 01:01:02;;;;;;;1.93;1.93;;;19.90;74.00;;;;;;5081756;28;43979;-72
2022/11/03 01:03:31;;;;;;;1.77;1.77;;;19.80;74.00;;;;;;5065282;28;45635;-71
2022/11/03 01:08:44;;;;;;;1.80;1.80;;;19.80;74.10;;;;;;5086100;28;43457;-70
2022/11/03 01:14:00;;;;;;;1.80;1.80;;;19.80;74.30;;;;;;5068787;28;45640;-72
2022/11/03 01:16:28;;;;;;;1.83;1.83;;;19.70;74.40;;;;;;5088020;28;43824;-71
2022/11/03 01:18:57;;;;;;;1.70;1.70;;;19.70;74.80;;;;;;5088071;28;43515;-72
2022/11/03 01:21:24;;;;;;;1.63;1.63;;;19.70;74.60;;;;;;5092085;27;44029;-71
2022/11/03 01:23:53;;;;;;;1.60;1.60;;;19.70;74.60;;;;;;5087870;28;43583;-70
2022/11/03 01:26:20;;;;;;;1.60;1.60;;;19.70;74.60;;;;;;5091448;27;45296;-71
2022/11/03 01:28:48;;;;;;;1.60;1.60;;;19.60;74.70;;;;;;5087487;28;43442;-70
2022/11/03 01:31:19;;;;;;;1.77;1.77;;;19.60;75.10;;;;;;5087818;28;44330;-72
2022/11/03 01:33:47;;;;;;;1.80;1.70;;;19.60;75.00;;;;;;5087734;28;43854;-70
2022/11/03 01:36:15;;;;;;;1.60;1.60;;;19.70;74.70;;;;;;5063687;28;44396;-69
2022/11/03 01:38:43;;;;;;;1.60;1.60;;;19.80;74.20;;;;;;5086772;28;43460;-70
2022/11/03 01:41:13;;;;;;;1.80;1.80;;;19.90;74.10;;;;;;5084021;28;43430;-70
2022/11/03 01:43:41;;;;;;;1.67;1.67;;;19.80;74.00;;;;;;5087332;28;43861;-70
2022/11/03 01:46:15;;;;;;;1.67;1.67;;;19.80;74.20;;;;;;5087053;28;43512;-71
2022/11/03 01:48:46;;;;;;;1.70;1.70;;;19.80;74.20;;;;;;5081377;28;43466;-72
2022/11/03 01:51:15;;;;;;;1.60;1.60;;;19.80;74.20;;;;;;5087151;28;43415;-69
2022/11/03 01:53:44;;;;;;;1.57;1.57;;;19.80;74.30;;;;;;5087381;28;43730;-72
2022/11/03 01:56:12;;;;;;;1.60;1.60;;;19.70;74.30;;;;;;5087417;28;43490;-70
2022/11/03 01:58:40;;;;;;;1.60;1.60;;;19.60;74.70;;;;;;5086943;28;43482;-70
2022/11/03 02:01:08;;;;;;;1.43;1.43;;;19.70;74.80;;;;;;5086933;28;43363;-71
2022/11/03 02:03:37;;;;;;;1.60;1.60;;;19.70;74.70;;;;;;5079679;28;43851;-71
2022/11/03 02:06:07;;;;;;;1.57;1.57;;;19.60;74.70;;;;;;5084859;28;44074;-71
2022/11/03 02:08:36;;;;;;;1.67;1.67;;;19.60;74.80;;;;;;5085518;28;43446;-71
2022/11/03 02:12:05;;;;;;;1.90;1.80;;;19.60;75.10;;;;;;5085098;28;44078;-72
2022/11/03 02:13:53;;;;;;;1.60;1.60;;;19.60;75.10;;;;;;5066378;28;45670;-72
2022/11/03 02:16:21;;;;;;;1.60;1.60;;;19.70;74.70;;;;;;5088041;28;43420;-72
2022/11/03 02:18:49;;;;;;;1.43;1.43;;;19.80;74.30;;;;;;5092449;27;43486;-72
2022/11/03 02:21:24;;;;;;;1.60;1.60;;;19.80;74.00;;;;;;5070313;28;44195;-70
2022/11/03 02:23:55;;;;;;;1.70;1.70;;;19.80;73.90;;;;;;5088575;28;43879;-71
2022/11/03 02:26:24;;;;;;;1.60;1.60;;;19.80;74.30;;;;;;5088292;28;43466;-71
2022/11/03 02:28:52;;;;;;;1.77;1.77;;;19.80;74.20;;;;;;5088441;28;43480;-70
2022/11/03 02:31:23;;;;;;;1.60;1.60;;;19.80;74.20;;;;;;5089148;28;43424;-71
2022/11/03 02:33:53;;;;;;;1.50;1.50;;;19.70;74.20;;;;;;5087713;28;44191;-72
2022/11/03 02:36:23;;;;;;;1.60;1.60;;;19.70;74.30;;;;;;5082031;28;44051;-71
2022/11/03 02:38:54;;;;;;;1.50;1.50;;;19.70;74.60;;;;;;5088698;28;43880;-72
2022/11/03 02:41:24;;;;;;;1.50;1.50;;;19.60;74.80;;;;;;5078369;28;43487;-71
2022/11/03 02:43:52;;;;;;;1.50;1.50;;;19.60;74.60;;;;;;5088224;27;46050;-73
2022/11/03 02:46:20;;;;;;;1.47;1.47;;;19.60;74.60;;;;;;5088268;28;43561;-72
2022/11/03 02:48:48;;;;;;;1.57;1.57;;;19.60;74.70;;;;;;5088484;28;43450;-72
2022/11/03 02:51:16;;;;;;;1.40;1.40;;;19.60;74.90;;;;;;5082507;28;43401;-72
2022/11/03 02:53:46;;;;;;;1.60;1.60;;;19.50;75.10;;;;;;5076372;28;45777;-71
2022/11/03 02:56:15;;;;;;;1.43;1.43;;;19.60;74.90;;;;;;5087961;28;43506;-71
2022/11/03 02:58:48;;;;;;;1.40;1.40;;;19.70;74.40;;;;;;5088038;28;43971;-72
2022/11/03 03:01:17;;;;;;;1.70;1.70;;;19.80;74.10;;;;;;5087939;28;43444;-71
2022/11/03 03:03:47;;;;;;;1.60;1.60;;;19.80;74.10;;;;;;5087627;28;43596;-72
2022/11/03 03:06:18;;;;;;;1.53;1.53;;;19.80;74.30;;;;;;5095099;27;45111;-71
2022/11/03 03:08:48;;;;;;;1.60;1.60;;;19.70;74.30;;;;;;5087956;28;43445;-72
2022/11/03 03:11:35;;;;;;;1.50;1.50;;;19.70;74.20;;;;;;5093171;27;43888;-71
2022/11/03 03:14:09;;;;;;;1.30;1.30;;;19.70;74.20;;;;;;5087847;28;43864;-71
2022/11/03 03:16:47;;;;;;;1.53;1.53;;;19.70;74.40;;;;;;5087660;28;43458;-71
2022/11/03 03:19:22;;;;;;;1.70;1.50;;;19.60;74.50;;;;;;5083619;28;43574;-72
2022/11/03 03:21:51;;;;;;;1.40;1.40;;;19.60;74.80;;;;;;5088016;28;43500;-73
2022/11/03 03:24:25;;;;;;;1.60;1.60;;;19.60;74.80;;;;;;5087521;28;44066;-73
2022/11/03 03:26:53;;;;;;;1.53;1.53;;;19.60;74.70;;;;;;5087140;27;43407;-72
2022/11/03 03:29:23;;;;;;;1.70;1.70;;;19.50;74.60;;;;;;5087384;28;43870;-71
2022/11/03 03:31:54;;;;;;;1.43;1.43;;;19.50;75.00;;;;;;5087952;28;43362;-72
2022/11/03 03:34:22;;;;;;;1.57;1.57;;;19.50;75.10;;;;;;5068718;28;45306;-72
2022/11/03 03:37:02;;;;;;;1.33;1.33;;;19.60;74.90;;;;;;5086516;28;43914;-71
2022/11/03 03:39:32;;;;;;;1.60;1.60;;;19.70;74.50;;;;;;5087769;28;43434;-71
2022/11/03 03:42:00;;;;;;;1.50;1.50;;;19.80;73.90;;;;;;5084878;27;43480;-70
2022/11/03 03:44:29;;;;;;;1.50;1.40;;;19.90;73.60;;;;;;5068749;28;45897;-71
2022/11/03 03:46:59;;;;;;;1.60;1.50;;;19.90;73.60;;;;;;5087420;28;43490;-72
2022/11/03 03:49:27;;;;;;;1.50;1.50;;;19.80;73.60;;;;;;5087260;28;43436;-71
2022/11/03 03:51:55;;;;;;;1.60;1.60;;;19.80;73.80;;;;;;5087450;28;43983;-70
2022/11/03 03:54:23;;;;;;;1.30;1.30;;;19.70;74.10;;;;;;5087225;28;43920;-73
2022/11/03 03:56:53;;;;;;;1.60;1.60;;;19.70;74.50;;;;;;5065375;28;44750;-71
2022/11/03 03:59:21;;;;;;;1.40;1.40;;;19.70;74.50;;;;;;5087571;28;43468;-71
2022/11/03 04:01:50;;;;;;;1.43;1.43;;;19.60;74.50;;;;;;5068692;28;43450;-70
2022/11/03 04:04:19;;;;;;;1.50;1.50;;;19.60;74.50;;;;;;5080603;28;43706;-70
2022/11/03 04:06:46;;;;;;;1.60;1.60;;;19.50;74.60;;;;;;5068186;28;44695;-71
2022/11/03 04:09:14;;;;;;;1.50;1.50;;;19.50;75.00;;;;;;5087224;28;43868;-71
2022/11/03 04:23:05;;;;;;;1.60;1.60;;;19.50;75.30;;;;;;5054135;28;43530;-72
2022/11/03 04:25:33;;;;;;;2.00;1.63;;;19.50;75.00;;;;;;5086501;28;44032;-71
2022/11/03 04:28:02;;;;;;;2.43;1.97;;;19.60;74.60;;;;;;5068884;28;44662;-71
2022/11/03 04:30:30;;;;;;;3.37;2.40;;;19.80;74.20;;;;;;5086995;28;43535;-72
2022/11/03 04:32:59;;;;;;;2.60;2.20;;;19.80;73.70;;;;;;5087254;28;43511;-72
2022/11/03 04:35:28;;;;;;;3.63;2.57;;;19.90;73.50;;;;;;5086719;28;43861;-71
2022/11/03 04:37:58;;;;;;;3.90;2.93;;;19.90;73.50;;;;;;5085020;27;44704;-73
2022/11/03 04:40:26;;;;;;;2.37;2.20;;;19.80;73.60;;;;;;5086694;28;43347;-72
2022/11/03 04:42:54;;;;;;;3.53;3.23;;;19.70;74.40;;;;;;5086410;28;43475;-71
2022/11/03 04:45:24;;;;;;;4.00;2.90;;;19.70;74.30;;;;;;5085949;28;43661;-73
2022/11/03 04:47:52;;;;;;;4.07;2.70;;;19.70;74.30;;;;;;5086320;28;44063;-71
2022/11/03 04:50:23;;;;;;;5.03;3.03;;;19.60;74.20;;;;;;5066157;28;43517;-71
2022/11/03 04:52:54;;;;;;;3.60;3.20;;;19.60;74.30;;;;;;5080012;28;43958;-70
2022/11/03 04:55:21;;;;;;;4.23;3.10;;;19.60;74.40;;;;;;5086393;28;43829;-72
2022/11/03 04:57:50;;;;;;;5.10;3.37;;;19.50;74.70;;;;;;5086440;28;43395;-73
2022/11/03 05:00:19;;;;;;;3.10;2.80;;;19.50;74.80;;;;;;5088744;27;43409;-72
2022/11/03 05:02:48;;;;;;;2.97;2.57;;;19.50;74.50;;;;;;5086201;28;43578;-72
2022/11/03 05:05:23;;;;;;;5.10;3.00;;;19.50;74.50;;;;;;5086099;28;43616;-72
2022/11/03 05:07:52;;;;;;;5.17;3.33;;;19.50;74.60;;;;;;5085840;28;43503;-72
2022/11/03 05:10:22;;;;;;;5.23;3.70;;;19.50;74.80;;;;;;5086223;28;43396;-71
2022/11/03 05:12:50;;;;;;;4.80;3.50;;;19.50;75.10;;;;;;5082207;28;44159;-71
2022/11/03 05:15:29;;;;;;;6.87;3.23;;;19.50;74.90;;;;;;5069611;28;45202;-72
2022/11/03 05:17:58;;;;;;;4.10;3.57;;;19.70;74.60;;;;;;5086164;28;43426;-71
2022/11/03 05:20:34;;;;;;;5.23;3.30;;;19.80;74.00;;;;;;5084002;28;43376;-72
2022/11/03 05:23:03;;;;;;;6.43;4.03;;;19.90;73.60;;;;;;5085828;28;43445;-71
2022/11/03 05:25:36;;;;;;;7.13;3.67;;;19.90;73.40;;;;;;5085449;27;45934;-73
2022/11/03 05:28:03;;;;;;;3.30;3.00;;;19.90;73.40;;;;;;5085672;28;43533;-71
2022/11/03 05:30:32;;;;;;;4.13;3.13;;;19.80;73.60;;;;;;5085719;28;43531;-72
2022/11/03 05:33:00;;;;;;;3.57;3.27;;;19.70;73.80;;;;;;5086384;28;43921;-72
2022/11/03 05:35:28;;;;;;;3.97;3.40;;;19.70;74.40;;;;;;5085825;28;43831;-71
2022/11/03 05:37:57;;;;;;;5.80;3.30;;;19.60;74.30;;;;;;5085618;28;44028;-71
2022/11/03 05:40:25;;;;;;;4.13;3.53;;;19.60;74.30;;;;;;5082293;28;44247;-71
2022/11/03 05:42:55;;;;;;;3.50;3.20;;;19.60;74.40;;;;;;5085549;28;43952;-72
2022/11/03 05:45:24;;;;;;;3.47;3.00;;;19.50;74.40;;;;;;5085759;28;44078;-72
2022/11/03 05:47:53;;;;;;;3.97;3.00;;;19.50;74.80;;;;;;5085247;28;44059;-71
2022/11/03 05:50:23;;;;;;;3.40;3.20;;;19.50;74.80;;;;;;5080390;28;43481;-72
2022/11/03 05:52:59;;;;;;;2.90;2.70;;;19.60;74.50;;;;;;5083877;28;43471;-72
2022/11/03 05:55:29;;;;;;;3.37;3.00;;;19.60;74.10;;;;;;5089204;28;43956;-71
2022/11/03 05:57:59;;;;;;;4.67;3.10;;;19.70;74.00;;;;;;5089118;28;43573;-71
2022/11/03 06:00:31;;;;;;;3.10;2.80;;;19.70;74.30;;;;;;5089325;28;43460;-71
2022/11/03 06:02:59;;;;;;;4.03;3.47;;;19.70;74.40;;;;;;5089527;28;43909;-72
2022/11/03 06:05:27;;;;;;;3.07;2.87;;;19.70;74.20;;;;;;5088902;28;43701;-70
2022/11/03 06:07:56;;;;;;;3.33;3.03;;;19.60;74.10;;;;;;5070338;28;44909;-71
2022/11/03 06:10:26;;;;;;;3.97;3.27;;;19.60;74.30;;;;;;5088687;28;43986;-72
2022/11/03 06:12:56;;;;;;;3.43;3.13;;;19.50;74.40;;;;;;5089221;28;44090;-72
2022/11/03 06:15:30;;;;;;;4.23;3.20;;;19.50;74.90;;;;;;5087923;28;44007;-72
2022/11/03 06:17:58;;;;;;;3.50;3.20;;;19.50;74.60;;;;;;5088784;28;43410;-71
2022/11/03 06:20:26;;;;;;;3.37;3.00;;;19.50;74.50;;;;;;5089312;28;43390;-70
2022/11/03 06:22:55;;;;;;;3.03;2.83;;;19.50;74.60;;;;;;5089304;28;43439;-71
2022/11/03 06:25:30;;;;;;;3.17;2.87;;;19.50;74.60;;;;;;5088661;28;43739;-72
2022/11/03 06:28:01;;;;;;;3.33;2.97;;;19.40;75.20;;;;;;5089013;28;43893;-72
2022/11/03 06:30:30;;;;;;;3.43;3.07;;;19.50;75.10;;;;;;5093247;27;43454;-71
2022/11/03 06:32:59;;;;;;;3.23;2.93;;;19.60;74.70;;;;;;5089149;28;43410;-72
2022/11/03 06:35:26;;;;;;;3.40;3.20;;;19.70;74.30;;;;;;5088853;28;43886;-73
2022/11/03 06:37:56;;;;;;;3.20;3.00;;;19.70;74.10;;;;;;5088792;28;43479;-71
2022/11/03 06:40:35;;;;;;;3.40;3.10;;;19.70;73.90;;;;;;5084948;28;43479;-71
2022/11/03 06:43:31;;;;;;;3.20;2.90;;;19.70;74.40;;;;;;5083148;28;43427;-71
2022/11/03 06:45:59;;;;;;;2.93;2.73;;;19.70;74.30;;;;;;5052351;28;45609;-72
2022/11/03 06:48:28;;;;;;;3.03;2.80;;;19.60;74.00;;;;;;5088728;28;43520;-72
2022/11/03 06:50:56;;;;;;;2.87;2.73;;;19.60;74.10;;;;;;5088874;28;43499;-71
2022/11/03 06:53:26;;;;;;;3.13;2.93;;;19.60;74.90;;;;;;5088485;27;43463;-73
2022/11/03 06:55:55;;;;;;;3.10;2.80;;;19.50;74.70;;;;;;5087981;27;45534;-71
2022/11/03 06:58:26;;;;;;;3.00;2.80;;;19.50;74.70;;;;;;5088296;28;43793;-70
2022/11/03 07:00:55;;;;;;;3.23;2.93;;;19.60;74.40;;;;;;5087828;27;43462;-72
2022/11/03 07:03:32;;;;;;;3.13;2.90;;;19.70;74.20;;;;;;5082076;28;43959;-71
2022/11/03 07:06:01;;;;;;;3.00;2.80;;;19.70;74.00;;;;;;5068160;28;45722;-70
2022/11/03 07:08:30;;;;;;;2.90;2.70;;;19.70;74.10;;;;;;5087624;28;44149;-72
2022/11/03 07:11:04;;;;;;;3.00;2.80;;;19.60;74.30;;;;;;5088151;28;43327;-72
2022/11/03 07:13:33;;;;;;;3.40;3.10;;;19.60;74.10;;;;;;5088451;28;43381;-73
2022/11/03 07:16:01;;;;;;;2.80;2.60;;;19.60;74.20;;;;;;5087496;28;43591;-71
2022/11/03 07:18:31;;;;;;;3.07;2.87;;;19.50;74.20;;;;;;5069876;28;44440;-72
2022/11/03 07:20:59;;;;;;;3.30;3.00;;;19.50;74.40;;;;;;5088007;28;44478;-72
2022/11/03 07:23:29;;;;;;;2.83;2.67;;;19.50;74.90;;;;;;5083643;28;43592;-72
2022/11/03 07:25:59;;;;;;;2.83;2.70;;;19.50;74.60;;;;;;5084055;28;43594;-71
2022/11/03 07:28:30;;;;;;;3.27;2.97;;;19.50;74.60;;;;;;5087851;28;43560;-72
2022/11/03 07:31:00;;;;;;;3.13;2.93;;;19.50;74.60;;;;;;5087907;27;44013;-73
2022/11/03 07:33:29;;;;;;;3.53;3.03;;;19.40;74.70;;;;;;5069962;28;43530;-73
2022/11/03 07:35:57;;;;;;;2.83;2.57;;;19.40;75.20;;;;;;5087859;28;43846;-71
2022/11/03 07:38:43;;;;;;;2.73;2.53;;;19.50;75.00;;;;;;5086728;28;43482;-71
2022/11/03 07:41:12;;;;;;;2.60;2.40;;;19.60;74.50;;;;;;5085946;28;43439;-71
2022/11/03 07:43:41;;;;;;;2.90;2.70;;;19.70;74.30;;;;;;5088116;28;43623;-71
2022/11/03 07:46:09;;;;;;;2.93;2.73;;;19.70;74.10;;;;;;5087548;28;43564;-72
2022/11/03 07:48:39;;;;;;;2.93;2.63;;;19.70;74.20;;;;;;5087412;28;43427;-71
2022/11/03 07:51:16;;;;;;;2.70;2.60;;;19.60;74.20;;;;;;5087485;28;43413;-71
2022/11/03 07:53:45;;;;;;;2.80;2.60;;;19.60;74.10;;;;;;5082095;28;43409;-71
2022/11/03 07:56:20;;;;;;;2.43;2.33;;;19.60;74.20;;;;;;5087302;28;43678;-72
2022/11/03 07:58:51;;;;;;;3.10;2.80;;;19.60;74.30;;;;;;5068589;28;44665;-71
2022/11/03 08:01:26;;;;;;;2.80;2.60;;;19.50;74.30;;;;;;5087043;28;43426;-71
2022/11/03 08:03:57;;;;;;;2.40;2.30;;;19.50;74.80;;;;;;5086688;28;43841;-72
2022/11/03 08:06:26;;;;;;;2.53;2.43;;;19.50;74.70;;;;;;5066013;28;45169;-72
2022/11/03 08:08:54;;;;;;;2.50;2.40;;;19.50;74.60;;;;;;5067484;28;44076;-71
2022/11/03 08:11:22;;;;;;;2.60;2.47;;;19.50;74.70;;;;;;5068502;28;43497;-73
2022/11/03 08:13:57;;;;;;;2.47;2.30;;;19.40;74.70;;;;;;5086659;27;43380;-71
2022/11/03 08:16:25;;;;;;;2.47;2.37;;;19.40;75.10;;;;;;5087141;28;43631;-73
2022/11/03 08:18:53;;;;;;;2.90;2.70;;;19.40;75.00;;;;;;5086882;28;43577;-71
2022/11/03 08:21:21;;;;;;;2.80;2.60;;;19.40;74.90;;;;;;5087292;28;43431;-71
2022/11/03 08:23:49;;;;;;;2.40;2.20;;;19.40;74.90;;;;;;5086642;28;43901;-70
2022/11/03 08:26:17;;;;;;;2.57;2.47;;;19.40;74.90;;;;;;5086766;28;43857;-71
2022/11/03 08:28:45;;;;;;;2.13;2.03;;;19.30;75.00;;;;;;5087204;28;43414;-72
2022/11/03 08:31:14;;;;;;;2.60;2.50;;;19.30;75.40;;;;;;5086595;28;44015;-71
2022/11/03 08:33:42;;;;;;;3.10;2.80;;;19.40;75.20;;;;;;5087414;28;43490;-72
2022/11/03 08:36:10;;;;;;;2.53;2.43;;;19.50;74.80;;;;;;5086587;28;43873;-72
2022/11/03 08:38:38;;;;;;;2.57;2.47;;;19.70;74.40;;;;;;5086376;28;43512;-72
2022/11/03 08:41:06;;;;;;;2.60;2.50;;;19.80;73.80;;;;;;5082038;28;44003;-71
2022/11/03 08:43:34;;;;;;;2.47;2.37;;;19.80;73.60;;;;;;5087079;28;43426;-72
2022/11/03 08:46:01;;;;;;;2.70;2.50;;;19.80;73.60;;;;;;5086323;28;43854;-72
2022/11/03 08:48:41;;;;;;;2.50;2.40;;;19.70;73.70;;;;;;5086620;28;43479;-71
2022/11/03 08:51:12;;;;;;;2.73;2.60;;;19.60;73.90;;;;;;5086717;28;43403;-71
2022/11/03 08:53:41;;;;;;;2.70;2.53;;;19.60;74.40;;;;;;5082050;28;43443;-73
2022/11/03 08:56:09;;;;;;;2.53;2.43;;;19.50;74.40;;;;;;5080178;28;45130;-73
2022/11/03 08:58:41;;;;;;;2.30;2.20;;;19.50;74.40;;;;;;5086328;28;43365;-72
2022/11/03 09:01:09;;;;;;;2.40;2.30;;;19.50;74.40;;;;;;5086175;28;43450;-71
2022/11/03 09:03:37;;;;;;;2.67;2.57;;;19.50;74.60;;;;;;5086790;28;43437;-71
2022/11/03 09:06:06;;;;;;;2.30;2.10;;;19.40;74.60;;;;;;5086360;28;43735;-72
2022/11/03 09:08:34;;;;;;;2.50;2.40;;;19.40;75.00;;;;;;5086213;28;43442;-70
2022/11/03 09:11:22;;;;;;;2.37;2.27;;;19.40;74.90;;;;;;5085947;28;44204;-71
2022/11/03 09:13:50;;;;;;;2.40;2.27;;;19.40;74.80;;;;;;5086626;28;43983;-72
2022/11/03 09:16:18;;;;;;;2.77;2.57;;;19.40;74.80;;;;;;5086036;28;43678;-71
2022/11/03 09:18:46;;;;;;;2.30;2.20;;;19.40;75.00;;;;;;5081235;28;43507;-71
2022/11/03 09:21:15;;;;;;;2.40;2.30;;;19.40;75.30;;;;;;5067930;28;43423;-72
2022/11/03 09:23:43;;;;;;;2.60;2.40;;;19.40;75.10;;;;;;5068278;28;43551;-71
2022/11/03 09:26:11;;;;;;;2.63;2.43;;;19.50;74.60;;;;;;5089645;28;43833;-71
2022/11/03 09:28:39;;;;;;;1.70;1.70;;;19.70;74.20;;;;;;5071468;28;44684;-72
2022/11/03 09:31:07;;;;;;;2.20;2.10;;;19.80;73.80;;;;;;5089937;28;43498;-73
2022/11/03 09:33:35;;;;;;;2.30;2.20;;;19.80;73.60;;;;;;5090050;28;43946;-71
2022/11/03 09:36:03;;;;;;;2.40;2.30;;;19.80;73.60;;;;;;5089424;28;43904;-71
2022/11/03 09:38:33;;;;;;;2.30;2.20;;;19.70;73.70;;;;;;5089506;28;43379;-73
2022/11/03 09:41:01;;;;;;;2.30;2.20;;;19.60;73.90;;;;;;5089549;28;43531;-74
2022/11/03 09:43:36;;;;;;;2.23;2.13;;;19.60;74.50;;;;;;5089921;28;43417;-72
2022/11/03 09:46:04;;;;;;;2.20;2.10;;;19.50;74.30;;;;;;5089410;28;43612;-72
2022/11/03 09:48:32;;;;;;;2.17;2.07;;;19.50;74.40;;;;;;5089595;28;43478;-71
2022/11/03 09:51:00;;;;;;;2.27;2.17;;;19.50;74.50;;;;;;5089163;28;43533;-71
2022/11/03 09:53:28;;;;;;;2.20;2.00;;;19.40;74.60;;;;;;5071517;28;43504;-71
2022/11/03 09:55:57;;;;;;;2.30;2.20;;;19.40;75.00;;;;;;5089074;28;43597;-71
2022/11/03 09:58:26;;;;;;;2.10;2.00;;;19.40;75.00;;;;;;5089450;28;43466;-71
2022/11/03 10:00:54;;;;;;;2.07;1.97;;;19.40;75.00;;;;;;5088964;28;44015;-71
2022/11/03 10:03:22;;;;;;;1.93;1.93;;;19.40;75.00;;;;;;5089292;28;43455;-71
2022/11/03 10:05:50;;;;;;;2.17;2.07;;;19.40;75.00;;;;;;5087323;28;44345;-72
2022/11/03 10:08:22;;;;;;;2.30;2.20;;;19.30;75.20;;;;;;5088297;28;43955;-73
2022/11/03 10:10:50;;;;;;;2.37;2.27;;;19.30;75.40;;;;;;5089117;28;43338;-70
2022/11/03 10:13:23;;;;;;;2.00;2.00;;;19.40;75.10;;;;;;5089294;28;43482;-71
2022/11/03 10:15:51;;;;;;;2.03;2.00;;;19.50;74.70;;;;;;5069529;28;45716;-73
2022/11/03 10:18:19;;;;;;;2.03;1.93;;;19.70;74.30;;;;;;5082686;28;43490;-70
2022/11/03 10:20:47;;;;;;;1.80;1.80;;;19.70;73.90;;;;;;5082853;28;43447;-73
2022/11/03 10:23:15;;;;;;;1.70;1.60;;;19.70;73.70;;;;;;5087136;28;43453;-71
2022/11/03 10:25:44;;;;;;;1.87;1.77;;;19.70;73.90;;;;;;5070112;28;45989;-72
2022/11/03 10:28:21;;;;;;;1.80;1.80;;;19.60;74.00;;;;;;5088647;28;43625;-71
2022/11/03 10:30:50;;;;;;;2.10;2.00;;;19.50;74.20;;;;;;5088791;28;43429;-71
2022/11/03 10:33:39;;;;;;;2.00;1.90;;;19.50;74.70;;;;;;5089264;28;44061;-72
2022/11/03 10:36:22;;;;;;;2.20;2.10;;;19.50;74.60;;;;;;5087345;27;43603;-70
2022/11/03 10:38:50;;;;;;;2.00;1.90;;;19.40;74.60;;;;;;5088590;28;43404;-72
2022/11/03 10:41:19;;;;;;;1.90;1.90;;;19.40;74.70;;;;;;5084076;28;43456;-73
2022/11/03 10:44:00;;;;;;;2.00;2.00;;;19.40;74.80;;;;;;5063955;28;43730;-73
2022/11/03 10:46:28;;;;;;;2.23;2.13;;;19.40;75.30;;;;;;5083668;28;43912;-71
2022/11/03 10:49:17;;;;;;;1.90;1.80;;;19.40;75.10;;;;;;5088319;28;43450;-71
2022/11/03 10:51:47;;;;;;;1.73;1.73;;;19.50;74.70;;;;;;5086593;28;43523;-73
2022/11/03 10:54:16;;;;;;;1.90;1.80;;;19.50;74.40;;;;;;5069580;28;43512;-72
2022/11/03 10:56:44;;;;;;;1.80;1.80;;;19.50;74.30;;;;;;5087854;28;43900;-71
2022/11/03 10:59:16;;;;;;;1.63;1.63;;;19.50;74.60;;;;;;5088054;28;43457;-70
2022/11/03 11:01:44;;;;;;;1.70;1.70;;;19.50;74.70;;;;;;5088103;28;43586;-70
2022/11/03 11:04:13;;;;;;;2.00;1.90;;;19.50;74.60;;;;;;5088868;28;43460;-72
2022/11/03 11:06:41;;;;;;;1.73;1.73;;;19.50;74.60;;;;;;5088269;28;43564;-72
2022/11/03 11:09:10;;;;;;;1.90;1.90;;;19.40;74.60;;;;;;5066119;28;44697;-74
2022/11/03 11:11:37;;;;;;;2.10;2.00;;;19.40;74.80;;;;;;5085877;28;43430;-72
2022/11/03 11:14:23;;;;;;;2.13;2.03;;;19.40;75.20;;;;;;5088668;28;43423;-70
2022/11/03 11:16:51;;;;;;;2.00;1.90;;;19.40;75.00;;;;;;5083812;28;43852;-71
2022/11/03 11:19:20;;;;;;;1.53;1.53;;;19.40;75.70;;;;;;5083299;28;43498;-71
2022/11/03 11:22:12;;;;;;;1.67;1.67;;;19.40;75.00;;;;;;5089341;27;43793;-71
2022/11/03 11:24:59;;;;;;;1.70;1.67;;;19.30;75.00;;;;;;5088379;28;43440;-71
2022/11/03 11:27:47;;;;;;;1.67;1.67;;;19.30;75.40;;;;;;5085564;28;43874;-72
2022/11/03 11:31:03;;;;;;;1.90;1.80;;;19.30;75.20;;;;;;5085004;28;43470;-71
2022/11/03 11:33:34;;;;;;;1.93;1.87;;;19.50;75.00;;;;;;5084936;28;43993;-74
2022/11/03 11:36:06;;;;;;;1.87;1.83;;;19.60;74.40;;;;;;5087796;28;44011;-71
2022/11/03 11:39:05;;;;;;;1.70;1.70;;;19.60;74.00;;;;;;5087725;28;43896;-72
2022/11/03 11:42:07;;;;;;;1.70;1.70;;;19.60;73.80;;;;;;5079646;28;43548;-72
2022/11/03 11:45:06;;;;;;;1.70;1.63;;;19.60;74.00;;;;;;5062356;28;43496;-72
2022/11/03 11:47:49;;;;;;;1.63;1.63;;;19.50;74.30;;;;;;5085607;27;43395;-72
2022/11/03 11:50:22;;;;;;;1.70;1.70;;;19.50;74.70;;;;;;5087206;27;45397;-71
2022/11/03 11:52:53;;;;;;;1.60;1.60;;;19.40;74.60;;;;;;5081003;28;43794;-71
2022/11/03 11:55:25;;;;;;;1.30;1.30;;;19.40;74.60;;;;;;5081588;28;43517;-72
2022/11/03 11:57:53;;;;;;;1.60;1.60;;;19.40;74.70;;;;;;5069244;28;44264;-73
2022/11/03 12:00:22;;;;;;;1.50;1.50;;;19.30;74.80;;;;;;5087250;28;44024;-70
2022/11/03 12:02:51;;;;;;;1.60;1.60;;;19.30;75.10;;;;;;5086567;28;43482;-71
2022/11/03 12:05:24;;;;;;;1.50;1.50;;;19.30;75.10;;;;;;5071972;28;43433;-71
2022/11/03 12:07:52;;;;;;;1.60;1.60;;;19.30;75.70;;;;;;5087458;28;43438;-72
2022/11/03 12:10:22;;;;;;;1.40;1.40;;;19.30;74.90;;;;;;5086119;28;43596;-71
2022/11/03 12:12:50;;;;;;;1.70;1.70;;;19.30;75.00;;;;;;5064540;28;44280;-71
2022/11/03 12:15:55;;;;;;;1.47;1.47;;;19.30;75.10;;;;;;5087122;28;43573;-71
2022/11/03 12:18:34;;;;;;;1.60;1.60;;;19.30;75.40;;;;;;5068826;28;43506;-71
2022/11/03 12:21:09;;;;;;;1.80;1.80;;;19.40;75.10;;;;;;5086937;28;43803;-71
2022/11/03 12:23:40;;;;;;;1.33;1.33;;;19.50;74.60;;;;;;5086953;28;43603;-72
2022/11/03 12:26:15;;;;;;;1.50;1.50;;;19.60;74.10;;;;;;5068534;28;43506;-71
2022/11/03 12:28:43;;;;;;;1.60;1.60;;;19.70;73.90;;;;;;5087391;28;43489;-71
2022/11/03 12:31:12;;;;;;;1.47;1.47;;;19.70;73.80;;;;;;5086749;28;43833;-71
2022/11/03 12:33:40;;;;;;;1.30;1.30;;;19.60;73.90;;;;;;5068411;28;45172;-71
2022/11/03 12:36:09;;;;;;;1.40;1.40;;;19.50;74.00;;;;;;5087104;28;43546;-73
2022/11/03 12:38:37;;;;;;;1.30;1.30;;;19.50;74.30;;;;;;5087112;28;43474;-73
2022/11/03 12:41:23;;;;;;;1.47;1.47;;;19.40;74.70;;;;;;5084677;28;43873;-73
2022/11/03 12:43:51;;;;;;;1.60;1.60;;;19.40;74.60;;;;;;5086654;28;44089;-71
2022/11/03 12:46:21;;;;;;;1.47;1.47;;;19.40;74.70;;;;;;5086413;28;43366;-71
2022/11/03 12:48:49;;;;;;;1.30;1.30;;;19.40;74.80;;;;;;5087003;28;43448;-71
2022/11/03 12:51:19;;;;;;;1.50;1.50;;;19.30;74.80;;;;;;5085492;28;43980;-73
2022/11/03 12:53:47;;;;;;;1.70;1.70;;;19.30;75.30;;;;;;5084052;28;43522;-72
2022/11/03 12:56:15;;;;;;;1.30;1.30;;;19.30;75.10;;;;;;5086436;28;43527;-71
2022/11/03 12:58:43;;;;;;;1.43;1.43;;;19.40;74.80;;;;;;5081007;27;43537;-71
2022/11/03 13:01:11;;;;;;;1.60;1.60;;;19.50;74.60;;;;;;5086381;28;43903;-72
2022/11/03 13:03:40;;;;;;;1.60;1.60;;;19.50;74.40;;;;;;5079762;28;43814;-71
2022/11/03 13:06:09;;;;;;;1.50;1.50;;;19.40;74.60;;;;;;5086214;28;43849;-73
2022/11/03 13:08:38;;;;;;;1.30;1.30;;;19.40;74.70;;;;;;5068877;28;43474;-72
2022/11/03 13:12:29;;;;;;;1.47;1.47;;;19.40;74.60;;;;;;5086393;28;43797;-72
2022/11/03 13:13:54;;;;;;;1.40;1.40;;;19.40;74.70;;;;;;5068018;28;44276;-72
2022/11/03 13:16:22;;;;;;;1.30;1.30;;;19.40;74.80;;;;;;5086351;28;43416;-72
2022/11/03 13:18:50;;;;;;;1.40;1.40;;;19.30;74.80;;;;;;5086753;28;43898;-72
2022/11/03 13:21:18;;;;;;;1.50;1.50;;;19.30;75.30;;;;;;5086002;28;43882;-71
2022/11/03 13:23:47;;;;;;;1.30;1.30;;;19.30;75.20;;;;;;5086029;28;43453;-71